createdAt,value
2022-08-04T00:01:50.616Z,72.73
2022-08-04T00:04:29.005Z,72.99
2022-08-04T00:07:06.581Z,72.54
2022-08-04T00:09:40.555Z,72.79
2022-08-04T00:12:12.472Z,72.43
2022-08-04T00:14:48.876Z,72.69
2022-08-04T00:17:21.606Z,72.07
2022-08-04T00:19:53.007Z,71.53
2022-08-04T00:22:27.705Z,71.52
2022-08-04T00:24:56.608Z,71.35
2022-08-04T00:27:24.643Z,71.35
2022-08-04T00:29:54.161Z,71.14
2022-08-04T00:32:33.787Z,70.71
2022-08-04T00:35:02.790Z,71.30
2022-08-04T00:37:30.507Z,71.10
2022-08-04T00:39:59.001Z,71.10
2022-08-04T00:42:58.490Z,71.24
2022-08-04T00:46:16.785Z,71.56
2022-08-04T00:49:04.657Z,71.42
2022-08-04T00:51:44.885Z,71.89
2022-08-04T00:54:18.966Z,71.81
2022-08-04T00:57:03.912Z,72.17
2022-08-04T00:59:52.575Z,71.85
2022-08-04T01:02:32.926Z,72.00
2022-08-04T01:05:13.666Z,71.96
2022-08-04T01:08:17.008Z,72.20
2022-08-04T01:10:57.463Z,72.74
2022-08-04T01:13:41.399Z,73.59
2022-08-04T01:16:11.339Z,73.07
2022-08-04T01:18:50.164Z,73.20
2022-08-04T01:21:39.652Z,75.14
2022-08-04T01:24:25.816Z,73.91
2022-08-04T01:27:02.483Z,73.60
2022-08-04T01:29:46.681Z,74.41
2022-08-04T01:32:25.604Z,75.01
2022-08-04T01:35:00.443Z,75.38
2022-08-04T01:37:41.058Z,76.20
2022-08-04T01:40:09.373Z,76.07
2022-08-04T01:42:40.422Z,75.61
2022-08-04T01:45:12.007Z,75.64
2022-08-04T01:47:43.295Z,76.02
2022-08-04T01:50:13.458Z,76.65
2022-08-04T01:52:47.580Z,76.02
2022-08-04T01:55:18.308Z,75.88
2022-08-04T01:57:48.189Z,76.74
2022-08-04T02:00:20.225Z,76.32
2022-08-04T02:02:48.693Z,76.83
2022-08-04T02:05:18.762Z,77.44
2022-08-04T02:07:55.279Z,77.09
2022-08-04T02:10:30.518Z,76.51
2022-08-04T02:13:11.672Z,76.98
2022-08-04T02:15:57.788Z,77.37
2022-08-04T02:18:31.665Z,77.23
2022-08-04T02:21:02.378Z,77.08
2022-08-04T02:23:32.748Z,77.66
2022-08-04T02:26:03.882Z,78.18
2022-08-04T02:28:36.371Z,78.21
2022-08-04T02:31:28.731Z,78.27
2022-08-04T02:34:05.535Z,78.42
2022-08-04T02:36:38.025Z,77.72
2022-08-04T02:39:07.956Z,78.59
2022-08-04T02:41:37.547Z,78.20
2022-08-04T02:44:08.411Z,77.51
2022-08-04T02:46:39.408Z,77.29
2022-08-04T02:49:09.411Z,77.44
2022-08-04T02:51:39.215Z,77.81
2022-08-04T02:54:08.134Z,78.49
2022-08-04T02:56:39.634Z,78.82
2022-08-04T02:59:09.745Z,78.97
2022-08-04T03:01:42.595Z,78.33
2022-08-04T03:04:40.742Z,78.60
2022-08-04T03:07:37.301Z,78.42
2022-08-04T03:10:46.927Z,78.29
2022-08-04T03:13:47.333Z,79.09
2022-08-04T03:17:12.256Z,79.89
2022-08-04T03:20:24.532Z,80.41
2022-08-04T03:23:14.016Z,80.12
2022-08-04T03:26:14.873Z,80.63
2022-08-04T03:29:00.680Z,80.05
2022-08-04T03:32:01.282Z,80.35
2022-08-04T03:34:45.228Z,80.56
2022-08-04T03:37:29.601Z,80.22
2022-08-04T03:40:27.191Z,80.29
2022-08-04T03:43:59.171Z,80.29
2022-08-04T03:46:42.434Z,80.67
2022-08-04T03:49:43.621Z,80.96
2022-08-04T03:52:40.371Z,81.64
2022-08-04T03:55:32.318Z,82.32
2022-08-04T03:58:34.139Z,81.29
2022-08-04T04:01:13.810Z,81.67
2022-08-04T04:04:04.897Z,81.54
2022-08-04T04:07:02.481Z,81.70
2022-08-04T04:10:15.288Z,82.02
2022-08-04T04:13:17.960Z,81.41
2022-08-04T04:16:09.248Z,81.97
2022-08-04T04:19:09.506Z,82.58
2022-08-04T04:21:59.139Z,82.91
2022-08-04T04:24:55.886Z,82.77
2022-08-04T04:27:38.650Z,82.42
2022-08-04T04:30:10.388Z,82.40
2022-08-04T04:33:08.777Z,81.65
2022-08-04T04:35:51.733Z,81.70
2022-08-04T04:38:34.191Z,81.61
2022-08-04T04:41:12.947Z,81.35
2022-08-04T04:44:09.159Z,81.49
2022-08-04T04:46:47.038Z,80.62
2022-08-04T04:49:26.237Z,80.79
2022-08-04T04:52:01.746Z,81.39
2022-08-04T04:54:34.384Z,81.44
2022-08-04T04:57:08.479Z,81.83
2022-08-04T04:59:40.269Z,82.07
2022-08-04T05:02:37.788Z,82.16
2022-08-04T05:05:28.726Z,81.77
2022-08-04T05:08:45.317Z,82.45
2022-08-04T05:11:44.175Z,81.58
2022-08-04T05:14:35.801Z,82.02
2022-08-04T05:17:16.615Z,81.80
2022-08-04T05:19:57.529Z,81.78
2022-08-04T05:22:30.818Z,81.75
2022-08-04T05:25:05.958Z,81.78
2022-08-04T05:27:40.232Z,81.15
2022-08-04T05:30:10.726Z,79.96
2022-08-04T05:32:51.727Z,79.05
2022-08-04T05:35:52.952Z,79.14
2022-08-04T05:38:27.410Z,79.20
2022-08-04T05:40:56.510Z,78.34
2022-08-04T05:43:25.263Z,79.43
2022-08-04T05:45:54.120Z,77.65
2022-08-04T05:48:22.283Z,76.99
2022-08-04T05:50:52.501Z,76.94
2022-08-04T05:53:21.787Z,77.09
2022-08-04T05:55:59.064Z,77.35
2022-08-04T05:58:29.954Z,76.76
2022-08-04T06:00:58.855Z,76.21
2022-08-04T06:03:28.264Z,75.96
2022-08-04T06:05:58.806Z,75.36
2022-08-04T06:08:26.768Z,73.66
2022-08-04T06:10:58.126Z,72.91
2022-08-04T06:13:48.456Z,73.48
2022-08-04T06:16:29.729Z,72.54
2022-08-04T06:20:02.308Z,72.29
2022-08-04T06:21:52.368Z,71.60
2022-08-04T06:24:23.405Z,71.34
2022-08-04T06:26:52.966Z,70.72
2022-08-04T06:29:26.901Z,69.18
2022-08-04T06:32:27.409Z,68.80
2022-08-04T06:34:48.555Z,68.12
2022-08-04T06:37:41.155Z,67.59
2022-08-04T06:40:31.400Z,65.97
2022-08-04T06:42:59.297Z,63.53
2022-08-04T06:45:28.266Z,62.64
2022-08-04T06:47:57.443Z,62.18
2022-08-04T06:51:27.925Z,61.40
2022-08-04T06:53:15.650Z,61.17
2022-08-04T06:55:45.270Z,61.20
2022-08-04T06:58:14.242Z,59.49
2022-08-04T07:00:44.460Z,59.98
2022-08-04T07:03:12.580Z,59.11
2022-08-04T07:05:41.701Z,59.71
2022-08-04T07:08:11.479Z,59.18
2022-08-04T07:10:41.791Z,59.31
2022-08-04T07:13:10.510Z,57.86
2022-08-04T07:15:42.278Z,57.50
2022-08-04T07:18:10.290Z,57.58
2022-08-04T07:20:41.996Z,57.69
2022-08-04T07:23:12.004Z,56.25
2022-08-04T07:26:01.029Z,55.54
2022-08-04T07:28:31.074Z,54.10
2022-08-04T07:31:00.113Z,53.24
2022-08-04T07:33:29.324Z,53.17
2022-08-04T07:36:05.661Z,52.07
2022-08-04T07:38:50.602Z,51.40
2022-08-04T07:41:39.502Z,50.85
2022-08-04T07:44:08.477Z,50.39
2022-08-04T07:46:36.766Z,50.57
2022-08-04T07:49:05.565Z,50.57
2022-08-04T07:51:35.931Z,50.15
2022-08-04T07:54:05.285Z,49.27
2022-08-04T07:56:37.569Z,49.18
2022-08-04T07:59:06.256Z,48.60
2022-08-04T08:01:35.546Z,48.81
2022-08-04T08:04:05.981Z,48.48
2022-08-04T08:06:41.206Z,48.04
2022-08-04T08:09:14.525Z,47.38
2022-08-04T08:12:36.165Z,46.91
2022-08-04T08:14:35.088Z,46.98
2022-08-04T08:17:03.200Z,46.20
2022-08-04T08:19:31.545Z,45.52
2022-08-04T08:22:01.144Z,46.23
2022-08-04T08:24:29.373Z,46.13
2022-08-04T08:27:00.066Z,45.02
2022-08-04T08:29:29.935Z,44.91
2022-08-04T08:32:02.705Z,45.20
2022-08-04T08:34:35.251Z,44.79
2022-08-04T08:37:09.730Z,44.66
2022-08-04T08:39:42.186Z,44.06
2022-08-04T08:42:48.813Z,44.03
2022-08-04T08:45:40.367Z,43.03
2022-08-04T08:48:20.893Z,43.08
2022-08-04T08:51:31.679Z,42.97
2022-08-04T08:54:36.234Z,43.00
2022-08-04T08:57:21.347Z,42.85
2022-08-04T09:00:05.435Z,42.19
2022-08-04T09:03:07.319Z,40.33
2022-08-04T09:05:49.948Z,40.64
2022-08-04T09:08:30.909Z,40.70
2022-08-04T09:11:07.074Z,41.02
2022-08-04T09:13:42.519Z,40.88
2022-08-04T09:16:18.276Z,41.12
2022-08-04T09:18:53.885Z,40.66
2022-08-04T09:21:29.712Z,39.96
2022-08-04T09:24:04.780Z,40.14
2022-08-04T09:27:00.082Z,39.58
2022-08-04T09:29:34.989Z,38.89
2022-08-04T09:32:13.416Z,38.92
2022-08-04T09:35:03.267Z,38.51
2022-08-04T09:37:45.693Z,38.89
2022-08-04T09:40:33.114Z,39.05
2022-08-04T09:43:19.873Z,38.11
2022-08-04T09:46:00.143Z,37.78
2022-08-04T09:48:36.542Z,37.38
2022-08-04T09:51:15.403Z,37.01
2022-08-04T09:53:55.138Z,36.71
2022-08-04T09:56:27.047Z,35.99
2022-08-04T09:59:06.836Z,35.94
2022-08-04T10:01:35.606Z,35.94
2022-08-04T10:04:09.839Z,35.55
2022-08-04T10:07:00.023Z,35.24
2022-08-04T10:09:51.369Z,35.72
2022-08-04T10:12:34.218Z,34.87
2022-08-04T10:15:11.627Z,34.80
2022-08-04T10:17:52.660Z,34.56
2022-08-04T10:20:44.620Z,34.25
2022-08-04T10:23:25.005Z,34.05
2022-08-04T10:26:07.715Z,33.82
2022-08-04T10:28:44.518Z,34.39
2022-08-04T10:31:20.197Z,33.65
2022-08-04T10:33:53.139Z,34.21
2022-08-04T10:36:26.436Z,34.27
2022-08-04T10:39:02.328Z,33.98
2022-08-04T10:41:36.111Z,33.70
2022-08-04T10:44:18.967Z,32.99
2022-08-04T10:46:50.854Z,33.52
2022-08-04T10:49:24.219Z,32.81
2022-08-04T10:51:58.005Z,32.58
2022-08-04T10:54:43.800Z,32.42
2022-08-04T10:57:16.497Z,32.73
2022-08-04T10:59:52.407Z,32.23
2022-08-04T11:02:38.944Z,32.49
2022-08-04T11:05:15.857Z,32.83
2022-08-04T11:07:46.367Z,32.71
2022-08-04T11:10:19.470Z,32.76
2022-08-04T11:12:50.509Z,31.80
2022-08-04T11:15:24.573Z,31.52
2022-08-04T11:17:58.324Z,31.55
2022-08-04T11:20:35.904Z,31.99
2022-08-04T11:23:09.608Z,32.30
2022-08-04T11:25:51.547Z,31.99
2022-08-04T11:28:26.628Z,32.24
2022-08-04T11:31:00.497Z,31.81
2022-08-04T11:33:36.672Z,32.16
2022-08-04T11:36:15.735Z,32.34
2022-08-04T11:38:52.027Z,32.60
2022-08-04T11:41:27.637Z,32.23
2022-08-04T11:44:03.294Z,32.07
2022-08-04T11:46:40.292Z,31.43
2022-08-04T11:49:11.899Z,32.10
2022-08-04T11:51:40.786Z,31.50
2022-08-04T11:54:08.792Z,31.35
2022-08-04T11:56:38.470Z,31.62
2022-08-04T11:59:08.673Z,32.37
2022-08-04T12:01:47.481Z,32.41
2022-08-04T12:04:19.722Z,32.29
2022-08-04T12:07:15.202Z,31.89
2022-08-04T12:09:49.873Z,32.06
2022-08-04T12:12:29.513Z,32.57
2022-08-04T12:15:05.644Z,31.67
2022-08-04T12:17:52.990Z,31.72
2022-08-04T12:20:32.063Z,30.89
2022-08-04T12:23:16.771Z,30.95
2022-08-04T12:25:48.978Z,31.80
2022-08-04T12:28:25.855Z,30.86
2022-08-04T12:31:05.133Z,31.70
2022-08-04T12:37:29.409Z,31.59
2022-08-04T12:40:21.674Z,32.06
2022-08-04T12:42:59.777Z,32.36
2022-08-04T12:45:30.786Z,31.68
2022-08-04T12:48:00.788Z,32.23
2022-08-04T12:50:29.095Z,32.44
2022-08-04T12:53:03.390Z,32.24
2022-08-04T12:55:34.882Z,32.10
2022-08-04T12:58:03.980Z,31.36
2022-08-04T13:00:41.391Z,31.64
2022-08-04T13:03:12.839Z,30.60
2022-08-04T13:05:42.651Z,30.81
2022-08-04T13:08:12.412Z,31.62
2022-08-04T13:10:42.949Z,31.34
2022-08-04T13:13:17.327Z,31.59
2022-08-04T13:15:57.054Z,31.59
2022-08-04T13:18:30.092Z,31.10
2022-08-04T13:21:19.261Z,30.98
2022-08-04T13:24:10.078Z,31.09
2022-08-04T13:26:55.270Z,30.83
2022-08-04T13:29:58.836Z,31.03
2022-08-04T13:32:22.203Z,31.11
2022-08-04T13:34:56.002Z,31.00
2022-08-04T13:37:27.653Z,31.09
2022-08-04T13:39:58.460Z,30.90
2022-08-04T13:42:27.782Z,31.47
2022-08-04T13:44:56.978Z,31.26
2022-08-04T13:47:30.542Z,31.28
2022-08-04T13:50:12.907Z,31.50
2022-08-04T13:52:41.933Z,31.48
2022-08-04T13:55:13.468Z,30.89
2022-08-04T13:57:46.356Z,30.68
2022-08-04T14:00:30.173Z,31.08
2022-08-04T14:03:19.015Z,30.76
2022-08-04T14:06:16.075Z,31.21
2022-08-04T14:08:53.485Z,31.30
2022-08-04T14:12:10.950Z,31.39
2022-08-04T14:14:20.773Z,31.02
2022-08-04T14:17:03.698Z,31.19
2022-08-04T14:19:51.498Z,31.27
2022-08-04T14:22:34.814Z,30.04
2022-08-04T14:25:05.868Z,31.01
2022-08-04T14:27:43.754Z,31.16
2022-08-04T14:30:27.510Z,31.72
2022-08-04T14:32:57.681Z,32.09
2022-08-04T14:35:49.990Z,31.62
2022-08-04T14:38:15.572Z,31.20
2022-08-04T14:40:45.004Z,31.14
2022-08-04T14:43:18.318Z,30.58
2022-08-04T14:45:54.853Z,31.26
2022-08-04T14:48:25.314Z,30.97
2022-08-04T14:50:55.312Z,30.85
2022-08-04T14:53:26.561Z,31.17
2022-08-04T14:55:56.935Z,31.35
2022-08-04T14:58:34.749Z,30.86
2022-08-04T15:01:10.767Z,31.99
2022-08-04T15:03:49.812Z,31.44
2022-08-04T15:06:23.049Z,31.13
2022-08-04T15:08:52.311Z,31.34
2022-08-04T15:11:23.396Z,31.51
2022-08-04T15:13:52.327Z,31.14
2022-08-04T15:16:21.137Z,31.13
2022-08-04T15:18:49.923Z,30.88
2022-08-04T15:21:18.655Z,30.63
2022-08-04T15:23:47.880Z,31.44
2022-08-04T15:26:19.027Z,31.20
2022-08-04T15:28:52.356Z,31.49
2022-08-04T15:32:04.807Z,30.59
2022-08-04T15:34:12.127Z,30.39
2022-08-04T15:36:56.193Z,30.23
2022-08-04T15:39:36.908Z,30.87
2022-08-04T15:42:20.896Z,30.84
2022-08-04T15:45:16.897Z,30.68
2022-08-04T15:47:53.297Z,30.57
2022-08-04T15:50:28.660Z,30.26
2022-08-04T15:53:10.550Z,30.01
2022-08-04T15:55:44.771Z,30.77
2022-08-04T15:58:17.183Z,30.65
2022-08-04T16:01:19.496Z,30.33
2022-08-04T16:04:00.469Z,30.90
2022-08-04T16:07:05.057Z,30.71
2022-08-04T16:09:45.905Z,30.57
2022-08-04T16:12:54.057Z,31.32
2022-08-04T16:15:47.028Z,30.84
2022-08-04T16:18:26.172Z,31.64
2022-08-04T16:20:57.588Z,31.26
2022-08-04T16:24:06.340Z,30.82
2022-08-04T16:26:56.532Z,31.14
2022-08-04T16:29:36.315Z,30.96
2022-08-04T16:32:13.628Z,30.43
2022-08-04T16:34:49.661Z,31.09
2022-08-04T16:37:24.442Z,30.62
2022-08-04T16:40:12.139Z,30.46
2022-08-04T16:42:40.443Z,30.58
2022-08-04T16:45:13.012Z,30.33
2022-08-04T16:48:07.929Z,30.79
2022-08-04T16:50:47.502Z,30.60
2022-08-04T16:53:51.950Z,30.92
2022-08-04T16:56:06.965Z,31.27
2022-08-04T16:58:36.674Z,30.95
2022-08-04T17:01:10.268Z,31.41
2022-08-04T17:03:57.551Z,31.39
2022-08-04T17:06:34.961Z,31.50
2022-08-04T17:09:07.273Z,30.96
2022-08-04T17:11:35.436Z,31.17
2022-08-04T17:14:05.771Z,31.64
2022-08-04T17:16:35.867Z,31.15
2022-08-04T17:19:06.922Z,31.08
2022-08-04T17:21:49.056Z,31.35
2022-08-04T17:24:18.194Z,31.61
2022-08-04T17:26:51.861Z,31.47
2022-08-04T17:29:42.781Z,31.90
2022-08-04T17:32:15.053Z,32.22
2022-08-04T17:34:48.739Z,33.51
2022-08-04T17:40:10.753Z,32.12
2022-08-04T17:42:41.345Z,33.16
2022-08-04T17:45:49.186Z,33.38
2022-08-04T17:48:00.585Z,32.41
2022-08-04T17:50:35.691Z,32.84
2022-08-04T17:53:11.587Z,33.43
2022-08-04T17:55:41.901Z,33.06
2022-08-04T17:58:20.928Z,33.45
2022-08-04T18:01:10.679Z,34.00
2022-08-04T18:03:53.084Z,34.15
2022-08-04T18:06:25.626Z,33.74
2022-08-04T18:08:58.055Z,34.48
2022-08-04T18:11:29.767Z,34.47
2022-08-04T18:14:10.490Z,34.60
2022-08-04T18:16:44.555Z,34.45
2022-08-04T18:19:14.485Z,35.57
2022-08-04T18:21:59.286Z,36.20
2022-08-04T18:24:34.189Z,37.03
2022-08-04T18:27:18.504Z,37.09
2022-08-04T18:29:56.498Z,39.40
2022-08-04T18:32:34.366Z,38.90
2022-08-04T18:35:05.684Z,39.96
2022-08-04T18:38:06.324Z,39.23
2022-08-04T18:40:34.285Z,38.62
2022-08-04T18:43:14.402Z,40.82
2022-08-04T18:45:51.054Z,39.75
2022-08-04T18:48:19.406Z,40.58
2022-08-04T18:51:11.323Z,41.54
2022-08-04T18:53:36.516Z,42.33
2022-08-04T18:56:06.096Z,43.02
2022-08-04T18:58:34.397Z,43.46
2022-08-04T19:01:02.325Z,43.68
2022-08-04T19:03:41.568Z,44.00
2022-08-04T19:06:13.769Z,44.74
2022-08-04T19:08:45.569Z,45.72
2022-08-04T19:14:03.459Z,46.48
2022-08-04T19:16:33.401Z,46.35
2022-08-04T19:19:02.597Z,47.10
2022-08-04T19:22:00.107Z,47.72
2022-08-04T19:24:31.785Z,47.24
2022-08-04T19:27:06.562Z,46.99
2022-08-04T19:29:41.434Z,46.78
2022-08-04T19:32:13.875Z,46.42
2022-08-04T19:34:46.472Z,47.21
2022-08-04T19:37:56.745Z,47.42
2022-08-04T19:40:08.222Z,48.15
2022-08-04T19:42:37.806Z,47.97
2022-08-04T19:45:07.065Z,48.34
2022-08-04T19:48:11.405Z,49.04
2022-08-04T19:50:24.333Z,50.20
2022-08-04T19:52:53.121Z,50.62
2022-08-04T19:55:37.456Z,51.07
2022-08-04T19:58:08.972Z,50.89
2022-08-04T20:00:39.032Z,51.13
2022-08-04T20:03:09.980Z,51.94
2022-08-04T20:05:53.827Z,52.48
2022-08-04T20:08:25.076Z,52.69
2022-08-04T20:10:55.098Z,53.14
2022-08-04T20:13:30.940Z,52.79
2022-08-04T20:18:59.562Z,53.07
2022-08-04T20:21:36.749Z,53.97
2022-08-04T20:24:37.683Z,53.80
2022-08-04T20:27:11.688Z,54.07
2022-08-04T20:29:43.298Z,54.12
2022-08-04T20:32:11.419Z,54.38
2022-08-04T20:34:40.207Z,55.37
2022-08-04T20:37:10.467Z,55.51
2022-08-04T20:39:38.776Z,55.32
2022-08-04T20:42:11.525Z,55.97
2022-08-04T20:44:42.040Z,55.57
2022-08-04T20:47:10.442Z,55.60
2022-08-04T20:49:42.715Z,55.91
2022-08-04T20:52:18.135Z,56.11
2022-08-04T20:54:49.270Z,56.64
2022-08-04T20:57:48.772Z,56.10
2022-08-04T21:00:14.952Z,55.51
2022-08-04T21:02:44.465Z,55.69
2022-08-04T21:05:12.770Z,56.18
2022-08-04T21:07:43.950Z,56.36
2022-08-04T21:10:17.142Z,56.33
2022-08-04T21:12:51.450Z,56.69
2022-08-04T21:15:25.097Z,56.41
2022-08-04T21:17:58.713Z,55.95
2022-08-04T21:20:33.602Z,56.41
2022-08-04T21:23:03.672Z,56.27
2022-08-04T21:25:41.166Z,55.97
2022-08-04T21:28:25.648Z,55.99
2022-08-04T21:30:54.986Z,56.69
2022-08-04T21:33:49.882Z,57.51
2022-08-04T21:36:13.339Z,58.16
2022-08-04T21:38:41.950Z,58.83
2022-08-04T21:41:24.186Z,59.52
2022-08-04T21:43:54.003Z,59.47
2022-08-04T21:46:22.146Z,59.43
2022-08-04T21:48:50.014Z,59.04
2022-08-04T21:51:56.953Z,59.57
2022-08-04T21:54:09.529Z,60.94
2022-08-04T21:56:39.857Z,60.03
2022-08-04T21:59:14.408Z,60.28
2022-08-04T22:01:50.477Z,59.59
2022-08-04T22:04:22.416Z,59.35
2022-08-04T22:06:52.334Z,59.13
2022-08-04T22:09:21.761Z,59.01
2022-08-04T22:11:51.521Z,59.38
2022-08-04T22:14:27.464Z,58.73
2022-08-04T22:16:58.502Z,58.44
2022-08-04T22:19:39.913Z,59.47
2022-08-04T22:22:26.001Z,59.05
2022-08-04T22:24:55.370Z,59.99
2022-08-04T22:27:47.730Z,60.16
2022-08-04T22:30:18.124Z,59.64
2022-08-04T22:32:47.059Z,60.81
2022-08-04T22:35:44.371Z,61.26
2022-08-04T22:38:06.957Z,60.91
2022-08-04T22:40:38.319Z,60.67
2022-08-04T22:43:22.622Z,61.52
2022-08-04T22:45:55.379Z,62.55
2022-08-04T22:48:23.752Z,63.38
2022-08-04T22:50:55.985Z,62.27
2022-08-04T22:53:24.166Z,61.74
2022-08-04T22:56:07.009Z,61.90
2022-08-04T22:58:40.171Z,61.80
2022-08-04T23:01:10.259Z,61.82
2022-08-04T23:03:39.083Z,61.77
2022-08-04T23:06:10.527Z,62.07
2022-08-04T23:08:43.012Z,62.12
2022-08-04T23:11:14.923Z,62.45
2022-08-04T23:13:43.022Z,63.26
2022-08-04T23:16:12.359Z,64.80
2022-08-04T23:18:42.434Z,64.86
2022-08-04T23:21:14.039Z,63.84
2022-08-04T23:23:47.738Z,63.83
2022-08-04T23:26:27.782Z,64.37
2022-08-04T23:28:56.673Z,64.12
2022-08-04T23:31:40.453Z,64.23
2022-08-04T23:34:12.222Z,64.00
2022-08-04T23:36:40.960Z,63.41
2022-08-04T23:39:10.373Z,65.12
2022-08-04T23:41:55.393Z,65.03
2022-08-04T23:44:26.837Z,64.54
2022-08-04T23:47:01.773Z,63.85
2022-08-04T23:49:43.457Z,63.72
2022-08-04T23:52:23.573Z,63.71
2022-08-04T23:54:56.479Z,64.60
2022-08-04T23:57:31.434Z,66.29
